sensor_id;sensor_type;location;lat;lon;timestamp;P1;durP1;ratioP1;P2;durP2;ratioP2
14007;SDS011;61651;45.508;12.232;2024-01-15T00:01:51;76.43;;;64.13;;
14007;SDS011;61651;45.508;12.232;2024-01-15T00:04:53;72.67;;;61.47;;
14007;SDS011;61651;45.508;12.232;2024-01-15T00:07:56;72.30;;;61.40;;
14007;SDS011;61651;45.508;12.232;2024-01-15T00:10:58;71.93;;;60.90;;
14007;SDS011;61651;45.508;12.232;2024-01-15T00:14:00;73.83;;;63.37;;
14007;SDS011;61651;45.508;12.232;2024-01-15T00:17:03;78.07;;;65.03;;
14007;SDS011;61651;45.508;12.232;2024-01-15T00:20:06;72.43;;;62.47;;
14007;SDS011;61651;45.508;12.232;2024-01-15T00:55:25;72.23;;;62.13;;
14007;SDS011;61651;45.508;12.232;2024-01-15T00:58:27;74.33;;;60.33;;
14007;SDS011;61651;45.508;12.232;2024-01-15T01:01:29;76.37;;;62.90;;
14007;SDS011;61651;45.508;12.232;2024-01-15T01:04:31;73.43;;;60.80;;
14007;SDS011;61651;45.508;12.232;2024-01-15T01:07:34;74.37;;;61.87;;
14007;SDS011;61651;45.508;12.232;2024-01-15T01:10:37;73.73;;;60.37;;
14007;SDS011;61651;45.508;12.232;2024-01-15T01:13:39;68.07;;;60.03;;
14007;SDS011;61651;45.508;12.232;2024-01-15T01:16:41;72.40;;;61.43;;
14007;SDS011;61651;45.508;12.232;2024-01-15T01:19:43;69.43;;;59.97;;
14007;SDS011;61651;45.508;12.232;2024-01-15T01:22:46;70.23;;;56.80;;
14007;SDS011;61651;45.508;12.232;2024-01-15T01:25:48;69.10;;;59.80;;
14007;SDS011;61651;45.508;12.232;2024-01-15T01:28:50;75.83;;;61.43;;
14007;SDS011;61651;45.508;12.232;2024-01-15T01:31:52;75.13;;;60.13;;
14007;SDS011;61651;45.508;12.232;2024-01-15T01:34:54;75.03;;;63.07;;
14007;SDS011;61651;45.508;12.232;2024-01-15T01:37:57;71.60;;;61.10;;
14007;SDS011;61651;45.508;12.232;2024-01-15T01:40:59;73.83;;;62.83;;
14007;SDS011;61651;45.508;12.232;2024-01-15T01:44:01;77.83;;;64.27;;
14007;SDS011;61651;45.508;12.232;2024-01-15T01:47:04;71.97;;;63.90;;
14007;SDS011;61651;45.508;12.232;2024-01-15T01:50:07;78.77;;;66.07;;
14007;SDS011;61651;45.508;12.232;2024-01-15T01:53:11;76.93;;;63.70;;
14007;SDS011;61651;45.508;12.232;2024-01-15T01:56:13;74.17;;;62.77;;
14007;SDS011;61651;45.508;12.232;2024-01-15T01:59:15;73.97;;;62.77;;
14007;SDS011;61651;45.508;12.232;2024-01-15T02:02:18;70.77;;;62.97;;
14007;SDS011;61651;45.508;12.232;2024-01-15T02:05:21;80.30;;;65.07;;
14007;SDS011;61651;45.508;12.232;2024-01-15T02:08:25;74.43;;;64.43;;
14007;SDS011;61651;45.508;12.232;2024-01-15T02:11:27;70.17;;;61.03;;
14007;SDS011;61651;45.508;12.232;2024-01-15T02:14:29;73.77;;;62.53;;
14007;SDS011;61651;45.508;12.232;2024-01-15T02:17:31;80.23;;;64.43;;
14007;SDS011;61651;45.508;12.232;2024-01-15T02:20:33;72.20;;;61.37;;
14007;SDS011;61651;45.508;12.232;2024-01-15T02:23:37;72.90;;;63.53;;
14007;SDS011;61651;45.508;12.232;2024-01-15T02:26:39;70.77;;;61.73;;
14007;SDS011;61651;45.508;12.232;2024-01-15T02:29:41;74.30;;;63.47;;
14007;SDS011;61651;45.508;12.232;2024-01-15T02:32:44;73.13;;;62.67;;
14007;SDS011;61651;45.508;12.232;2024-01-15T02:35:47;79.23;;;64.80;;
14007;SDS011;61651;45.508;12.232;2024-01-15T02:38:51;73.27;;;62.37;;
14007;SDS011;61651;45.508;12.232;2024-01-15T02:41:53;73.53;;;61.90;;
14007;SDS011;61651;45.508;12.232;2024-01-15T02:44:56;72.27;;;59.80;;
14007;SDS011;61651;45.508;12.232;2024-01-15T02:47:58;73.13;;;63.53;;
14007;SDS011;61651;45.508;12.232;2024-01-15T02:51:00;75.73;;;62.63;;
14007;SDS011;61651;45.508;12.232;2024-01-15T02:54:03;75.73;;;63.37;;
14007;SDS011;61651;45.508;12.232;2024-01-15T02:57:05;79.40;;;64.47;;
14007;SDS011;61651;45.508;12.232;2024-01-15T03:00:08;72.47;;;61.57;;
14007;SDS011;61651;45.508;12.232;2024-01-15T03:03:11;72.97;;;61.40;;
14007;SDS011;61651;45.508;12.232;2024-01-15T03:06:13;73.17;;;62.53;;
14007;SDS011;61651;45.508;12.232;2024-01-15T03:09:17;76.57;;;62.00;;
14007;SDS011;61651;45.508;12.232;2024-01-15T03:12:19;79.53;;;63.73;;
14007;SDS011;61651;45.508;12.232;2024-01-15T03:15:21;74.37;;;58.30;;
14007;SDS011;61651;45.508;12.232;2024-01-15T03:18:23;73.33;;;59.83;;
14007;SDS011;61651;45.508;12.232;2024-01-15T03:21:25;75.87;;;62.07;;
14007;SDS011;61651;45.508;12.232;2024-01-15T03:24:28;78.80;;;60.47;;
14007;SDS011;61651;45.508;12.232;2024-01-15T03:27:30;75.13;;;59.60;;
14007;SDS011;61651;45.508;12.232;2024-01-15T03:30:32;70.47;;;59.80;;
14007;SDS011;61651;45.508;12.232;2024-01-15T03:33:34;70.40;;;58.17;;
14007;SDS011;61651;45.508;12.232;2024-01-15T03:36:36;73.57;;;58.43;;
14007;SDS011;61651;45.508;12.232;2024-01-15T03:39:40;69.37;;;57.97;;
14007;SDS011;61651;45.508;12.232;2024-01-15T03:42:42;69.57;;;59.60;;
14007;SDS011;61651;45.508;12.232;2024-01-15T03:45:43;71.80;;;60.97;;
14007;SDS011;61651;45.508;12.232;2024-01-15T03:48:45;73.27;;;58.70;;
14007;SDS011;61651;45.508;12.232;2024-01-15T03:51:47;72.57;;;59.17;;
14007;SDS011;61651;45.508;12.232;2024-01-15T03:54:51;73.07;;;59.03;;
14007;SDS011;61651;45.508;12.232;2024-01-15T03:57:53;70.63;;;60.03;;
14007;SDS011;61651;45.508;12.232;2024-01-15T04:00:55;73.67;;;59.23;;
14007;SDS011;61651;45.508;12.232;2024-01-15T04:03:57;72.87;;;60.13;;
14007;SDS011;61651;45.508;12.232;2024-01-15T04:06:59;77.07;;;61.97;;
14007;SDS011;61651;45.508;12.232;2024-01-15T04:10:02;72.20;;;58.97;;
14007;SDS011;61651;45.508;12.232;2024-01-15T04:13:04;69.30;;;58.30;;
14007;SDS011;61651;45.508;12.232;2024-01-15T04:16:06;70.63;;;59.53;;
14007;SDS011;61651;45.508;12.232;2024-01-15T04:19:08;70.50;;;59.10;;
14007;SDS011;61651;45.508;12.232;2024-01-15T04:22:10;69.47;;;58.73;;
14007;SDS011;61651;45.508;12.232;2024-01-15T04:25:14;69.63;;;58.30;;
14007;SDS011;61651;45.508;12.232;2024-01-15T04:28:16;71.30;;;57.70;;
14007;SDS011;61651;45.508;12.232;2024-01-15T04:31:21;67.90;;;58.60;;
14007;SDS011;61651;45.508;12.232;2024-01-15T04:34:24;68.93;;;57.73;;
14007;SDS011;61651;45.508;12.232;2024-01-15T04:37:26;65.77;;;58.03;;
14007;SDS011;61651;45.508;12.232;2024-01-15T04:40:29;69.87;;;56.77;;
14007;SDS011;61651;45.508;12.232;2024-01-15T04:43:31;67.53;;;55.47;;
14007;SDS011;61651;45.508;12.232;2024-01-15T04:46:33;70.87;;;59.83;;
14007;SDS011;61651;45.508;12.232;2024-01-15T04:49:35;67.60;;;57.97;;
14007;SDS011;61651;45.508;12.232;2024-01-15T04:52:37;68.53;;;57.60;;
14007;SDS011;61651;45.508;12.232;2024-01-15T04:55:40;71.53;;;58.27;;
14007;SDS011;61651;45.508;12.232;2024-01-15T04:58:42;72.43;;;58.37;;
14007;SDS011;61651;45.508;12.232;2024-01-15T05:01:44;70.13;;;58.53;;
14007;SDS011;61651;45.508;12.232;2024-01-15T05:04:47;66.27;;;55.20;;
14007;SDS011;61651;45.508;12.232;2024-01-15T05:07:49;65.93;;;56.00;;
14007;SDS011;61651;45.508;12.232;2024-01-15T05:10:53;68.57;;;56.80;;
14007;SDS011;61651;45.508;12.232;2024-01-15T05:13:55;63.83;;;54.77;;
14007;SDS011;61651;45.508;12.232;2024-01-15T05:16:57;67.87;;;53.30;;
14007;SDS011;61651;45.508;12.232;2024-01-15T05:19:59;66.17;;;55.20;;
14007;SDS011;61651;45.508;12.232;2024-01-15T05:23:01;60.80;;;52.63;;
14007;SDS011;61651;45.508;12.232;2024-01-15T05:26:04;65.43;;;52.83;;
14007;SDS011;61651;45.508;12.232;2024-01-15T05:29:06;70.50;;;55.97;;
14007;SDS011;61651;45.508;12.232;2024-01-15T05:32:08;62.87;;;53.67;;
14007;SDS011;61651;45.508;12.232;2024-01-15T05:35:10;63.47;;;54.23;;
14007;SDS011;61651;45.508;12.232;2024-01-15T05:38:12;65.30;;;55.47;;
14007;SDS011;61651;45.508;12.232;2024-01-15T05:41:15;66.17;;;54.57;;
14007;SDS011;61651;45.508;12.232;2024-01-15T05:44:17;60.80;;;52.37;;
14007;SDS011;61651;45.508;12.232;2024-01-15T05:47:19;60.33;;;52.60;;
14007;SDS011;61651;45.508;12.232;2024-01-15T05:50:21;60.00;;;51.50;;
14007;SDS011;61651;45.508;12.232;2024-01-15T05:53:23;65.07;;;54.60;;
14007;SDS011;61651;45.508;12.232;2024-01-15T05:56:27;59.43;;;49.83;;
14007;SDS011;61651;45.508;12.232;2024-01-15T05:59:29;64.30;;;52.67;;
14007;SDS011;61651;45.508;12.232;2024-01-15T06:02:32;60.80;;;50.37;;
14007;SDS011;61651;45.508;12.232;2024-01-15T06:05:34;61.73;;;51.73;;
14007;SDS011;61651;45.508;12.232;2024-01-15T06:08:36;62.50;;;51.77;;
14007;SDS011;61651;45.508;12.232;2024-01-15T06:11:40;71.97;;;58.67;;
14007;SDS011;61651;45.508;12.232;2024-01-15T06:14:42;66.70;;;54.60;;
14007;SDS011;61651;45.508;12.232;2024-01-15T06:17:44;60.63;;;51.83;;
14007;SDS011;61651;45.508;12.232;2024-01-15T06:20:46;64.13;;;53.23;;
14007;SDS011;61651;45.508;12.232;2024-01-15T06:23:48;63.90;;;52.27;;
14007;SDS011;61651;45.508;12.232;2024-01-15T06:26:51;63.93;;;54.63;;
14007;SDS011;61651;45.508;12.232;2024-01-15T06:29:53;66.03;;;53.33;;
14007;SDS011;61651;45.508;12.232;2024-01-15T06:32:56;68.90;;;55.57;;
14007;SDS011;61651;45.508;12.232;2024-01-15T06:35:58;69.60;;;55.47;;
14007;SDS011;61651;45.508;12.232;2024-01-15T06:39:00;64.17;;;53.57;;
14007;SDS011;61651;45.508;12.232;2024-01-15T06:42:04;62.07;;;53.90;;
14007;SDS011;61651;45.508;12.232;2024-01-15T06:45:07;59.57;;;50.93;;
14007;SDS011;61651;45.508;12.232;2024-01-15T06:48:09;65.00;;;53.90;;
14007;SDS011;61651;45.508;12.232;2024-01-15T06:51:15;67.07;;;55.07;;
14007;SDS011;61651;45.508;12.232;2024-01-15T06:54:17;65.60;;;54.83;;
14007;SDS011;61651;45.508;12.232;2024-01-15T06:57:20;62.13;;;53.57;;
14007;SDS011;61651;45.508;12.232;2024-01-15T07:00:22;60.73;;;54.03;;
14007;SDS011;61651;45.508;12.232;2024-01-15T07:03:24;65.40;;;53.07;;
14007;SDS011;61651;45.508;12.232;2024-01-15T07:06:26;68.77;;;54.70;;
14007;SDS011;61651;45.508;12.232;2024-01-15T07:09:28;66.20;;;52.90;;
14007;SDS011;61651;45.508;12.232;2024-01-15T07:12:32;62.93;;;51.80;;
14007;SDS011;61651;45.508;12.232;2024-01-15T07:15:34;58.17;;;49.80;;
14007;SDS011;61651;45.508;12.232;2024-01-15T07:18:36;62.53;;;51.80;;
14007;SDS011;61651;45.508;12.232;2024-01-15T07:21:38;60.30;;;49.77;;
14007;SDS011;61651;45.508;12.232;2024-01-15T07:24:43;66.37;;;53.47;;
14007;SDS011;61651;45.508;12.232;2024-01-15T07:27:46;64.67;;;54.97;;
14007;SDS011;61651;45.508;12.232;2024-01-15T07:30:48;64.77;;;54.07;;
14007;SDS011;61651;45.508;12.232;2024-01-15T07:33:50;62.80;;;51.70;;
14007;SDS011;61651;45.508;12.232;2024-01-15T07:36:52;62.00;;;52.17;;
14007;SDS011;61651;45.508;12.232;2024-01-15T07:39:54;65.43;;;54.13;;
14007;SDS011;61651;45.508;12.232;2024-01-15T07:42:58;65.93;;;55.37;;
14007;SDS011;61651;45.508;12.232;2024-01-15T07:46:00;64.30;;;52.67;;
14007;SDS011;61651;45.508;12.232;2024-01-15T07:49:02;62.87;;;52.87;;
14007;SDS011;61651;45.508;12.232;2024-01-15T07:52:05;58.27;;;51.07;;
14007;SDS011;61651;45.508;12.232;2024-01-15T07:55:07;63.67;;;52.43;;
14007;SDS011;61651;45.508;12.232;2024-01-15T07:58:11;58.10;;;49.27;;
14007;SDS011;61651;45.508;12.232;2024-01-15T08:01:13;58.23;;;48.90;;
14007;SDS011;61651;45.508;12.232;2024-01-15T08:04:15;53.50;;;45.67;;
14007;SDS011;61651;45.508;12.232;2024-01-15T08:07:17;54.97;;;46.20;;
14007;SDS011;61651;45.508;12.232;2024-01-15T08:10:19;53.13;;;44.87;;
14007;SDS011;61651;45.508;12.232;2024-01-15T08:13:22;52.17;;;44.73;;
14007;SDS011;61651;45.508;12.232;2024-01-15T08:16:27;57.20;;;47.50;;
14007;SDS011;61651;45.508;12.232;2024-01-15T08:19:30;55.50;;;47.00;;
14007;SDS011;61651;45.508;12.232;2024-01-15T08:22:32;57.27;;;45.93;;
14007;SDS011;61651;45.508;12.232;2024-01-15T08:25:34;54.03;;;47.20;;
14007;SDS011;61651;45.508;12.232;2024-01-15T08:28:37;57.00;;;46.00;;
14007;SDS011;61651;45.508;12.232;2024-01-15T08:31:39;54.90;;;46.33;;
14007;SDS011;61651;45.508;12.232;2024-01-15T08:34:41;53.70;;;45.03;;
14007;SDS011;61651;45.508;12.232;2024-01-15T08:37:43;51.20;;;43.70;;
14007;SDS011;61651;45.508;12.232;2024-01-15T08:40:45;52.03;;;43.93;;
14007;SDS011;61651;45.508;12.232;2024-01-15T08:43:48;48.00;;;42.10;;
14007;SDS011;61651;45.508;12.232;2024-01-15T08:46:51;48.00;;;40.27;;
14007;SDS011;61651;45.508;12.232;2024-01-15T08:49:53;49.83;;;40.77;;
14007;SDS011;61651;45.508;12.232;2024-01-15T08:52:55;51.77;;;41.27;;
14007;SDS011;61651;45.508;12.232;2024-01-15T08:55:57;48.63;;;40.97;;
14007;SDS011;61651;45.508;12.232;2024-01-15T08:59:00;49.93;;;40.40;;
14007;SDS011;61651;45.508;12.232;2024-01-15T09:02:03;46.80;;;38.77;;
14007;SDS011;61651;45.508;12.232;2024-01-15T09:05:05;49.63;;;39.40;;
14007;SDS011;61651;45.508;12.232;2024-01-15T09:08:07;44.47;;;38.87;;
14007;SDS011;61651;45.508;12.232;2024-01-15T09:11:09;43.30;;;37.40;;
14007;SDS011;61651;45.508;12.232;2024-01-15T09:14:13;46.33;;;37.13;;
14007;SDS011;61651;45.508;12.232;2024-01-15T09:17:15;47.27;;;38.13;;
14007;SDS011;61651;45.508;12.232;2024-01-15T09:20:17;43.87;;;38.23;;
14007;SDS011;61651;45.508;12.232;2024-01-15T09:23:19;42.40;;;37.23;;
14007;SDS011;61651;45.508;12.232;2024-01-15T09:26:21;44.30;;;38.47;;
14007;SDS011;61651;45.508;12.232;2024-01-15T09:29:25;48.23;;;39.30;;
14007;SDS011;61651;45.508;12.232;2024-01-15T09:32:27;47.03;;;38.90;;
14007;SDS011;61651;45.508;12.232;2024-01-15T09:35:29;45.73;;;39.33;;
14007;SDS011;61651;45.508;12.232;2024-01-15T09:38:31;45.80;;;38.67;;
14007;SDS011;61651;45.508;12.232;2024-01-15T09:41:33;46.63;;;39.47;;
14007;SDS011;61651;45.508;12.232;2024-01-15T09:44:37;46.73;;;38.80;;
14007;SDS011;61651;45.508;12.232;2024-01-15T09:47:40;48.70;;;40.17;;
14007;SDS011;61651;45.508;12.232;2024-01-15T09:50:43;46.93;;;40.27;;
14007;SDS011;61651;45.508;12.232;2024-01-15T09:53:45;44.80;;;37.80;;
14007;SDS011;61651;45.508;12.232;2024-01-15T09:56:48;50.13;;;39.87;;
14007;SDS011;61651;45.508;12.232;2024-01-15T09:59:51;50.20;;;40.87;;
14007;SDS011;61651;45.508;12.232;2024-01-15T10:02:54;45.80;;;38.97;;
14007;SDS011;61651;45.508;12.232;2024-01-15T10:05:57;53.10;;;42.17;;
14007;SDS011;61651;45.508;12.232;2024-01-15T10:09:00;51.03;;;40.90;;
14007;SDS011;61651;45.508;12.232;2024-01-15T10:12:03;51.27;;;42.43;;
14007;SDS011;61651;45.508;12.232;2024-01-15T10:15:10;49.90;;;42.20;;
14007;SDS011;61651;45.508;12.232;2024-01-15T10:18:13;50.43;;;40.93;;
14007;SDS011;61651;45.508;12.232;2024-01-15T10:21:15;52.33;;;42.50;;
14007;SDS011;61651;45.508;12.232;2024-01-15T10:24:18;49.57;;;41.47;;
14007;SDS011;61651;45.508;12.232;2024-01-15T10:27:20;49.10;;;41.73;;
14007;SDS011;61651;45.508;12.232;2024-01-15T10:30:24;51.33;;;42.70;;
14007;SDS011;61651;45.508;12.232;2024-01-15T10:33:26;51.43;;;43.67;;
14007;SDS011;61651;45.508;12.232;2024-01-15T10:36:28;50.07;;;41.50;;
14007;SDS011;61651;45.508;12.232;2024-01-15T10:39:31;51.87;;;43.43;;
14007;SDS011;61651;45.508;12.232;2024-01-15T10:42:33;52.57;;;42.70;;
14007;SDS011;61651;45.508;12.232;2024-01-15T10:45:36;50.03;;;42.07;;
14007;SDS011;61651;45.508;12.232;2024-01-15T10:48:38;50.23;;;43.10;;
14007;SDS011;61651;45.508;12.232;2024-01-15T10:51:41;48.90;;;42.13;;
14007;SDS011;61651;45.508;12.232;2024-01-15T10:54:43;54.80;;;43.33;;
14007;SDS011;61651;45.508;12.232;2024-01-15T10:57:46;53.13;;;42.30;;
14007;SDS011;61651;45.508;12.232;2024-01-15T11:00:51;51.70;;;42.10;;
14007;SDS011;61651;45.508;12.232;2024-01-15T11:03:54;52.33;;;44.23;;
14007;SDS011;61651;45.508;12.232;2024-01-15T11:06:57;50.83;;;43.13;;
14007;SDS011;61651;45.508;12.232;2024-01-15T11:09:59;51.43;;;43.83;;
14007;SDS011;61651;45.508;12.232;2024-01-15T11:13:04;54.53;;;44.80;;
14007;SDS011;61651;45.508;12.232;2024-01-15T11:16:08;55.07;;;43.40;;
14007;SDS011;61651;45.508;12.232;2024-01-15T11:19:12;55.00;;;45.20;;
14007;SDS011;61651;45.508;12.232;2024-01-15T11:25:49;56.93;;;45.63;;
14007;SDS011;61651;45.508;12.232;2024-01-15T11:28:51;51.87;;;42.93;;
14007;SDS011;61651;45.508;12.232;2024-01-15T11:31:58;54.43;;;45.97;;
14007;SDS011;61651;45.508;12.232;2024-01-15T11:35:02;54.67;;;45.47;;
14007;SDS011;61651;45.508;12.232;2024-01-15T11:38:06;49.17;;;42.97;;
14007;SDS011;61651;45.508;12.232;2024-01-15T11:41:13;52.30;;;45.50;;
14007;SDS011;61651;45.508;12.232;2024-01-15T11:44:16;52.80;;;44.80;;
14007;SDS011;61651;45.508;12.232;2024-01-15T11:47:23;52.83;;;43.77;;
14007;SDS011;61651;45.508;12.232;2024-01-15T11:50:57;53.20;;;45.53;;
14007;SDS011;61651;45.508;12.232;2024-01-15T11:54:01;50.00;;;44.37;;
14007;SDS011;61651;45.508;12.232;2024-01-15T11:57:09;49.13;;;41.20;;
14007;SDS011;61651;45.508;12.232;2024-01-15T12:00:20;49.63;;;42.97;;
14007;SDS011;61651;45.508;12.232;2024-01-15T12:03:24;53.03;;;45.17;;
14007;SDS011;61651;45.508;12.232;2024-01-15T12:06:26;50.70;;;42.97;;
14007;SDS011;61651;45.508;12.232;2024-01-15T12:09:28;52.70;;;43.80;;
14007;SDS011;61651;45.508;12.232;2024-01-15T12:12:34;49.70;;;42.13;;
14007;SDS011;61651;45.508;12.232;2024-01-15T12:15:45;51.87;;;43.67;;
14007;SDS011;61651;45.508;12.232;2024-01-15T12:18:50;50.43;;;41.77;;
14007;SDS011;61651;45.508;12.232;2024-01-15T12:21:52;50.20;;;43.13;;
14007;SDS011;61651;45.508;12.232;2024-01-15T12:24:54;50.97;;;43.07;;
14007;SDS011;61651;45.508;12.232;2024-01-15T12:27:58;49.73;;;42.27;;
14007;SDS011;61651;45.508;12.232;2024-01-15T12:31:00;51.33;;;42.23;;
14007;SDS011;61651;45.508;12.232;2024-01-15T12:34:06;55.77;;;44.17;;
14007;SDS011;61651;45.508;12.232;2024-01-15T12:37:08;49.60;;;43.17;;
14007;SDS011;61651;45.508;12.232;2024-01-15T12:40:12;53.47;;;44.30;;
14007;SDS011;61651;45.508;12.232;2024-01-15T12:43:14;54.83;;;46.10;;
14007;SDS011;61651;45.508;12.232;2024-01-15T12:46:16;52.87;;;44.93;;
14007;SDS011;61651;45.508;12.232;2024-01-15T12:49:20;50.97;;;44.67;;
14007;SDS011;61651;45.508;12.232;2024-01-15T12:52:26;54.87;;;46.63;;
14007;SDS011;61651;45.508;12.232;2024-01-15T12:55:28;49.77;;;44.17;;
14007;SDS011;61651;45.508;12.232;2024-01-15T12:58:30;53.70;;;46.07;;
14007;SDS011;61651;45.508;12.232;2024-01-15T13:01:32;53.63;;;44.17;;
14007;SDS011;61651;45.508;12.232;2024-01-15T13:04:37;49.50;;;43.93;;
14007;SDS011;61651;45.508;12.232;2024-01-15T13:07:39;51.67;;;45.00;;
14007;SDS011;61651;45.508;12.232;2024-01-15T13:10:42;52.20;;;44.47;;
14007;SDS011;61651;45.508;12.232;2024-01-15T13:13:44;54.60;;;46.27;;
14007;SDS011;61651;45.508;12.232;2024-01-15T13:16:47;52.77;;;45.37;;
14007;SDS011;61651;45.508;12.232;2024-01-15T13:19:51;54.53;;;46.37;;
14007;SDS011;61651;45.508;12.232;2024-01-15T13:22:53;54.03;;;46.10;;
14007;SDS011;61651;45.508;12.232;2024-01-15T13:26:04;61.54;;;48.67;;
14007;SDS011;61651;45.508;12.232;2024-01-15T13:29:07;60.40;;;54.40;;
14007;SDS011;61651;45.508;12.232;2024-01-15T13:32:09;54.10;;;46.30;;
14007;SDS011;61651;45.508;12.232;2024-01-15T13:35:16;53.30;;;46.37;;
14007;SDS011;61651;45.508;12.232;2024-01-15T13:38:19;56.73;;;48.53;;
14007;SDS011;61651;45.508;12.232;2024-01-15T13:41:21;55.73;;;48.77;;
14007;SDS011;61651;45.508;12.232;2024-01-15T13:44:27;58.40;;;49.17;;
14007;SDS011;61651;45.508;12.232;2024-01-15T13:47:29;56.07;;;49.90;;
14007;SDS011;61651;45.508;12.232;2024-01-15T13:50:32;51.83;;;45.10;;
14007;SDS011;61651;45.508;12.232;2024-01-15T13:53:35;52.00;;;46.10;;
14007;SDS011;61651;45.508;12.232;2024-01-15T13:56:38;53.20;;;45.93;;
14007;SDS011;61651;45.508;12.232;2024-01-15T13:59:40;54.97;;;46.53;;
14007;SDS011;61651;45.508;12.232;2024-01-15T14:02:42;51.03;;;45.47;;
14007;SDS011;61651;45.508;12.232;2024-01-15T14:05:46;55.57;;;48.07;;
14007;SDS011;61651;45.508;12.232;2024-01-15T14:08:49;55.37;;;48.17;;
14007;SDS011;61651;45.508;12.232;2024-01-15T14:11:52;53.00;;;47.07;;
14007;SDS011;61651;45.508;12.232;2024-01-15T14:14:54;57.40;;;49.13;;
14007;SDS011;61651;45.508;12.232;2024-01-15T14:17:56;54.23;;;47.20;;
14007;SDS011;61651;45.508;12.232;2024-01-15T14:21:02;55.97;;;48.00;;
14007;SDS011;61651;45.508;12.232;2024-01-15T14:24:06;55.03;;;49.03;;
14007;SDS011;61651;45.508;12.232;2024-01-15T14:27:08;53.67;;;47.80;;
14007;SDS011;61651;45.508;12.232;2024-01-15T14:30:11;54.03;;;47.83;;
14007;SDS011;61651;45.508;12.232;2024-01-15T14:33:15;52.57;;;47.00;;
14007;SDS011;61651;45.508;12.232;2024-01-15T14:36:19;52.17;;;45.83;;
14007;SDS011;61651;45.508;12.232;2024-01-15T14:39:21;53.40;;;47.60;;
14007;SDS011;61651;45.508;12.232;2024-01-15T14:42:24;51.03;;;45.60;;
14007;SDS011;61651;45.508;12.232;2024-01-15T14:45:26;51.77;;;46.03;;
14007;SDS011;61651;45.508;12.232;2024-01-15T14:48:28;51.47;;;45.80;;
14007;SDS011;61651;45.508;12.232;2024-01-15T14:51:32;50.00;;;44.50;;
14007;SDS011;61651;45.508;12.232;2024-01-15T14:54:34;54.37;;;48.53;;
14007;SDS011;61651;45.508;12.232;2024-01-15T14:57:36;52.87;;;47.10;;
14007;SDS011;61651;45.508;12.232;2024-01-15T15:00:38;55.47;;;48.27;;
14007;SDS011;61651;45.508;12.232;2024-01-15T15:03:40;54.50;;;48.13;;
14007;SDS011;61651;45.508;12.232;2024-01-15T15:06:43;54.20;;;46.73;;
14007;SDS011;61651;45.508;12.232;2024-01-15T15:09:45;55.40;;;48.30;;
14007;SDS011;61651;45.508;12.232;2024-01-15T15:12:51;54.40;;;47.97;;
14007;SDS011;61651;45.508;12.232;2024-01-15T15:15:53;50.13;;;44.53;;
14007;SDS011;61651;45.508;12.232;2024-01-15T15:18:55;53.97;;;46.87;;
14007;SDS011;61651;45.508;12.232;2024-01-15T15:21:59;52.43;;;45.87;;
14007;SDS011;61651;45.508;12.232;2024-01-15T15:25:01;52.33;;;45.40;;
14007;SDS011;61651;45.508;12.232;2024-01-15T15:28:03;51.63;;;45.77;;
14007;SDS011;61651;45.508;12.232;2024-01-15T15:31:06;63.13;;;53.07;;
14007;SDS011;61651;45.508;12.232;2024-01-15T15:34:08;59.20;;;51.03;;
14007;SDS011;61651;45.508;12.232;2024-01-15T15:37:12;59.70;;;51.13;;
14007;SDS011;61651;45.508;12.232;2024-01-15T15:40:16;55.03;;;49.23;;
14007;SDS011;61651;45.508;12.232;2024-01-15T15:43:18;58.07;;;51.63;;
14007;SDS011;61651;45.508;12.232;2024-01-15T15:46:20;58.70;;;50.77;;
14007;SDS011;61651;45.508;12.232;2024-01-15T15:49:23;59.73;;;51.03;;
14007;SDS011;61651;45.508;12.232;2024-01-15T15:52:26;59.53;;;52.20;;
14007;SDS011;61651;45.508;12.232;2024-01-15T15:55:28;59.27;;;50.00;;
14007;SDS011;61651;45.508;12.232;2024-01-15T15:58:30;58.70;;;51.60;;
14007;SDS011;61651;45.508;12.232;2024-01-15T16:01:32;62.53;;;51.50;;
14007;SDS011;61651;45.508;12.232;2024-01-15T16:04:34;60.40;;;50.63;;
14007;SDS011;61651;45.508;12.232;2024-01-15T16:07:38;61.27;;;50.03;;
14007;SDS011;61651;45.508;12.232;2024-01-15T16:10:40;60.43;;;51.13;;
14007;SDS011;61651;45.508;12.232;2024-01-15T16:13:42;60.00;;;53.00;;
14007;SDS011;61651;45.508;12.232;2024-01-15T16:16:44;61.83;;;52.03;;
14007;SDS011;61651;45.508;12.232;2024-01-15T16:19:46;61.87;;;52.87;;
14007;SDS011;61651;45.508;12.232;2024-01-15T16:22:50;58.43;;;51.53;;
14007;SDS011;61651;45.508;12.232;2024-01-15T16:25:52;57.77;;;50.43;;
14007;SDS011;61651;45.508;12.232;2024-01-15T16:28:54;58.93;;;49.57;;
14007;SDS011;61651;45.508;12.232;2024-01-15T16:31:57;62.40;;;52.00;;
14007;SDS011;61651;45.508;12.232;2024-01-15T16:34:59;63.70;;;52.33;;
14007;SDS011;61651;45.508;12.232;2024-01-15T16:38:02;66.70;;;55.43;;
14007;SDS011;61651;45.508;12.232;2024-01-15T16:41:04;61.67;;;51.53;;
14007;SDS011;61651;45.508;12.232;2024-01-15T16:44:06;69.20;;;54.30;;
14007;SDS011;61651;45.508;12.232;2024-01-15T16:47:08;64.10;;;54.13;;
14007;SDS011;61651;45.508;12.232;2024-01-15T16:50:10;58.93;;;51.83;;
14007;SDS011;61651;45.508;12.232;2024-01-15T16:53:14;63.17;;;53.13;;
14007;SDS011;61651;45.508;12.232;2024-01-15T16:56:16;60.03;;;52.13;;
14007;SDS011;61651;45.508;12.232;2024-01-15T16:59:21;57.80;;;50.65;;
14007;SDS011;61651;45.508;12.232;2024-01-15T17:02:23;64.37;;;53.30;;
14007;SDS011;61651;45.508;12.232;2024-01-15T17:05:25;67.93;;;53.13;;
14007;SDS011;61651;45.508;12.232;2024-01-15T17:08:29;69.73;;;53.90;;
14007;SDS011;61651;45.508;12.232;2024-01-15T17:11:31;62.53;;;51.37;;
14007;SDS011;61651;45.508;12.232;2024-01-15T17:14:33;66.27;;;53.83;;
14007;SDS011;61651;45.508;12.232;2024-01-15T17:17:38;60.87;;;50.33;;
14007;SDS011;61651;45.508;12.232;2024-01-15T17:20:40;63.73;;;53.43;;
14007;SDS011;61651;45.508;12.232;2024-01-15T17:23:47;67.40;;;52.83;;
14007;SDS011;61651;45.508;12.232;2024-01-15T17:26:49;64.83;;;52.47;;
14007;SDS011;61651;45.508;12.232;2024-01-15T17:29:51;62.93;;;52.80;;
14007;SDS011;61651;45.508;12.232;2024-01-15T17:32:55;84.37;;;67.73;;
14007;SDS011;61651;45.508;12.232;2024-01-15T17:35:57;84.50;;;66.70;;
14007;SDS011;61651;45.508;12.232;2024-01-15T17:39:02;104.40;;;68.87;;
14007;SDS011;61651;45.508;12.232;2024-01-15T17:42:06;99.80;;;69.83;;
14007;SDS011;61651;45.508;12.232;2024-01-15T17:45:08;80.77;;;62.07;;
14007;SDS011;61651;45.508;12.232;2024-01-15T17:48:10;68.67;;;53.77;;
14007;SDS011;61651;45.508;12.232;2024-01-15T17:51:16;64.40;;;54.57;;
14007;SDS011;61651;45.508;12.232;2024-01-15T17:54:19;61.20;;;51.30;;
14007;SDS011;61651;45.508;12.232;2024-01-15T17:57:21;61.10;;;52.73;;
14007;SDS011;61651;45.508;12.232;2024-01-15T18:00:23;68.30;;;54.53;;
14007;SDS011;61651;45.508;12.232;2024-01-15T18:03:25;65.27;;;53.63;;
14007;SDS011;61651;45.508;12.232;2024-01-15T18:06:28;62.00;;;52.87;;
14007;SDS011;61651;45.508;12.232;2024-01-15T18:09:32;68.37;;;54.37;;